Time;durP1;ratioP1;P1;durP2;ratioP2;P2;SDS_P1;SDS_P2;PMS_P1;PMS_P2;Temp;Humidity;BMP_temperature;BMP_pressure;BME280_temperature;BME280_humidity;BME280_pressure;Samples;Min_cycle;Max_cycle;Signal;HPM_P1;HPM_P2
2024/01/20 00:01:22;;;;;;;10.85;2.88;;;;;;;;;;5051526;28;20503;-76
2024/01/20 00:03:50;;;;;;;9.35;2.88;;;;;;;;;;5063941;28;20842;-76
2024/01/20 00:06:18;;;;;;;11.55;3.13;;;;;;;;;;5048680;28;20075;-76
2024/01/20 00:08:45;;;;;;;9.05;2.45;;;;;;;;;;5053836;28;20039;-76
2024/01/20 00:11:14;;;;;;;10.05;2.90;;;;;;;;;;5044142;28;20032;-77
2024/01/20 00:13:44;;;;;;;12.18;2.85;;;;;;;;;;5064989;28;20024;-75
2024/01/20 00:16:12;;;;;;;9.30;2.60;;;;;;;;;;5063336;28;20039;-75
2024/01/20 00:18:39;;;;;;;9.57;2.28;;;;;;;;;;5047326;28;20032;-77
2024/01/20 00:21:07;;;;;;;10.43;2.75;;;;;;;;;;5065544;28;20528;-77
2024/01/20 00:23:37;;;;;;;10.85;2.50;;;;;;;;;;5045885;28;20024;-75
2024/01/20 00:26:06;;;;;;;9.82;2.13;;;;;;;;;;5061761;28;20093;-75
2024/01/20 00:28:32;;;;;;;11.73;2.50;;;;;;;;;;5045726;28;20120;-75
2024/01/20 00:31:00;;;;;;;8.43;2.35;;;;;;;;;;5050364;28;21075;-75
2024/01/20 00:33:29;;;;;;;10.65;2.30;;;;;;;;;;5064070;28;20123;-75
2024/01/20 00:35:58;;;;;;;9.05;2.30;;;;;;;;;;5062930;28;20039;-75
2024/01/20 00:38:27;;;;;;;11.18;2.60;;;;;;;;;;5047272;28;20096;-76
2024/01/20 00:40:56;;;;;;;11.15;2.38;;;;;;;;;;5062579;28;20400;-75
2024/01/20 00:43:25;;;;;;;9.85;2.30;;;;;;;;;;5061019;28;20028;-75
2024/01/20 00:46:02;;;;;;;9.40;2.50;;;;;;;;;;5064772;28;20020;-77
2024/01/20 00:48:32;;;;;;;10.80;2.42;;;;;;;;;;5062414;28;20040;-77
2024/01/20 00:51:00;;;;;;;16.48;2.85;;;;;;;;;;5063177;28;20672;-76
2024/01/20 00:53:28;;;;;;;11.07;2.63;;;;;;;;;;5064774;28;20028;-76
2024/01/20 00:55:56;;;;;;;14.75;2.83;;;;;;;;;;5050931;28;20032;-74
2024/01/20 00:58:25;;;;;;;11.10;2.50;;;;;;;;;;5048650;28;20053;-75
2024/01/20 01:00:54;;;;;;;14.55;2.95;;;;;;;;;;5055802;28;20646;-75
2024/01/20 01:03:21;;;;;;;13.98;3.10;;;;;;;;;;5065169;28;20047;-76
2024/01/20 01:05:49;;;;;;;13.48;3.40;;;;;;;;;;5068929;28;20994;-75
2024/01/20 01:08:16;;;;;;;12.68;3.20;;;;;;;;;;5062523;28;20101;-75
2024/01/20 01:10:44;;;;;;;12.38;3.50;;;;;;;;;;5057843;28;20104;-75
2024/01/20 01:13:13;;;;;;;14.05;3.40;;;;;;;;;;5066372;28;20032;-75
2024/01/20 01:15:42;;;;;;;12.43;3.08;;;;;;;;;;5066896;28;20117;-75
2024/01/20 01:18:08;;;;;;;13.60;3.33;;;;;;;;;;5071091;28;20472;-75
2024/01/20 01:20:36;;;;;;;15.50;3.88;;;;;;;;;;5072164;28;20882;-75
2024/01/20 01:23:05;;;;;;;13.18;3.40;;;;;;;;;;5055410;28;20069;-75
2024/01/20 01:25:34;;;;;;;13.35;3.10;;;;;;;;;;5053844;28;20139;-74
2024/01/20 01:28:02;;;;;;;13.88;3.83;;;;;;;;;;5054696;28;20017;-74
2024/01/20 01:30:31;;;;;;;15.25;3.53;;;;;;;;;;5053932;28;20109;-74
2024/01/20 01:33:03;;;;;;;14.75;3.70;;;;;;;;;;5068266;28;20050;-74
2024/01/20 01:35:32;;;;;;;15.32;3.42;;;;;;;;;;5051817;28;20036;-75
2024/01/20 01:38:02;;;;;;;15.75;3.58;;;;;;;;;;5054602;28;20036;-75
2024/01/20 01:40:29;;;;;;;19.33;3.70;;;;;;;;;;5045642;28;20087;-75
2024/01/20 01:42:58;;;;;;;16.35;3.60;;;;;;;;;;5049126;28;20117;-75
2024/01/20 01:45:27;;;;;;;15.60;3.42;;;;;;;;;;5066606;28;20064;-75
2024/01/20 01:48:05;;;;;;;15.32;3.70;;;;;;;;;;5051886;28;20032;-75
2024/01/20 01:50:34;;;;;;;15.90;3.45;;;;;;;;;;5066804;28;20024;-74
2024/01/20 01:53:03;;;;;;;18.10;3.53;;;;;;;;;;5066974;28;20115;-74
2024/01/20 01:55:51;;;;;;;15.98;3.35;;;;;;;;;;5046538;28;20040;-73
2024/01/20 01:58:23;;;;;;;17.13;3.80;;;;;;;;;;5063038;28;20094;-73
2024/01/20 02:00:52;;;;;;;17.67;4.00;;;;;;;;;;5044428;28;20028;-73
2024/01/20 02:03:21;;;;;;;17.42;4.22;;;;;;;;;;5050876;28;20094;-74
2024/01/20 02:05:49;;;;;;;15.63;3.60;;;;;;;;;;5052805;28;20038;-74
2024/01/20 02:08:17;;;;;;;13.85;3.80;;;;;;;;;;5066431;28;20032;-73
2024/01/20 02:10:49;;;;;;;14.75;3.45;;;;;;;;;;5055248;28;20498;-74
2024/01/20 02:13:16;;;;;;;13.43;3.38;;;;;;;;;;5049760;28;21581;-74
2024/01/20 02:15:44;;;;;;;14.80;3.45;;;;;;;;;;5046621;28;20716;-74
2024/01/20 02:18:13;;;;;;;13.20;3.17;;;;;;;;;;5032233;28;20033;-74
2024/01/20 02:20:41;;;;;;;14.15;3.22;;;;;;;;;;5031629;28;20037;-74
2024/01/20 02:23:12;;;;;;;17.58;3.55;;;;;;;;;;5026657;28;20068;-74
2024/01/20 02:25:41;;;;;;;14.63;3.75;;;;;;;;;;5032517;28;20041;-75
2024/01/20 02:28:10;;;;;;;13.93;3.55;;;;;;;;;;5030249;28;20021;-74
2024/01/20 02:30:37;;;;;;;15.15;3.55;;;;;;;;;;5036526;28;20025;-75
2024/01/20 02:33:06;;;;;;;13.63;2.85;;;;;;;;;;5021765;28;20385;-74
2024/01/20 02:35:33;;;;;;;15.45;3.53;;;;;;;;;;5023598;28;20634;-74
2024/01/20 02:38:01;;;;;;;11.75;2.63;;;;;;;;;;5028013;28;20029;-74
2024/01/20 02:40:28;;;;;;;12.52;2.92;;;;;;;;;;5031009;28;20142;-74
2024/01/20 02:42:56;;;;;;;13.15;2.70;;;;;;;;;;5031816;28;20036;-72
2024/01/20 02:45:25;;;;;;;11.45;2.70;;;;;;;;;;5031178;28;20037;-73
2024/01/20 02:47:54;;;;;;;11.48;2.50;;;;;;;;;;5033635;28;20060;-73
2024/01/20 02:50:22;;;;;;;9.98;2.15;;;;;;;;;;5027391;28;20308;-73
2024/01/20 02:52:50;;;;;;;9.23;2.20;;;;;;;;;;5018420;28;20036;-73
2024/01/20 02:55:18;;;;;;;9.93;2.17;;;;;;;;;;5027749;28;20068;-73
2024/01/20 02:57:46;;;;;;;10.07;2.35;;;;;;;;;;5035434;28;20027;-73
2024/01/20 03:00:15;;;;;;;9.80;2.30;;;;;;;;;;5032864;28;20024;-73
2024/01/20 03:02:42;;;;;;;12.27;2.70;;;;;;;;;;5030854;28;20028;-73
2024/01/20 03:05:11;;;;;;;12.20;2.50;;;;;;;;;;5031471;28;20500;-73
2024/01/20 03:07:39;;;;;;;12.23;2.95;;;;;;;;;;5035033;28;20216;-73
2024/01/20 03:10:08;;;;;;;11.63;2.75;;;;;;;;;;5031836;28;20032;-73
2024/01/20 03:12:37;;;;;;;12.05;2.60;;;;;;;;;;5031903;28;20039;-73
2024/01/20 03:15:07;;;;;;;10.27;2.40;;;;;;;;;;5034111;28;20036;-73
2024/01/20 03:17:35;;;;;;;10.25;2.30;;;;;;;;;;5050676;28;20373;-73
2024/01/20 03:20:03;;;;;;;11.38;2.40;;;;;;;;;;5054616;28;20042;-74
2024/01/20 03:22:33;;;;;;;11.98;2.47;;;;;;;;;;5062601;28;20024;-76
2024/01/20 03:25:01;;;;;;;10.32;2.40;;;;;;;;;;5056974;28;20048;-76
2024/01/20 03:27:30;;;;;;;8.85;2.05;;;;;;;;;;5066900;28;20042;-75
2024/01/20 03:29:58;;;;;;;8.88;2.08;;;;;;;;;;5050965;28;20104;-75
2024/01/20 03:32:26;;;;;;;9.60;2.10;;;;;;;;;;5067587;28;20028;-73
2024/01/20 03:34:55;;;;;;;10.13;2.15;;;;;;;;;;5068467;28;20077;-73
2024/01/20 03:37:33;;;;;;;11.45;2.45;;;;;;;;;;5062864;28;20193;-73
2024/01/20 03:40:02;;;;;;;14.02;2.83;;;;;;;;;;5043090;28;20036;-74
2024/01/20 03:42:31;;;;;;;12.13;2.70;;;;;;;;;;5059614;28;20041;-75
2024/01/20 03:45:00;;;;;;;12.20;3.13;;;;;;;;;;5063196;28;20041;-75
2024/01/20 03:47:29;;;;;;;13.73;3.30;;;;;;;;;;5064278;28;20032;-75
2024/01/20 03:50:09;;;;;;;13.43;2.97;;;;;;;;;;5062761;28;20028;-75
2024/01/20 03:52:45;;;;;;;11.07;2.63;;;;;;;;;;5062427;28;20043;-75
2024/01/20 03:55:13;;;;;;;11.68;2.78;;;;;;;;;;5049988;28;20031;-75
2024/01/20 03:57:40;;;;;;;14.30;2.80;;;;;;;;;;5052206;28;20050;-75
2024/01/20 04:00:09;;;;;;;11.05;2.58;;;;;;;;;;5052178;28;20123;-75
2024/01/20 04:02:38;;;;;;;14.85;3.30;;;;;;;;;;5064488;28;20031;-75
2024/01/20 04:05:07;;;;;;;15.23;3.80;;;;;;;;;;5049093;28;20545;-75
2024/01/20 04:07:36;;;;;;;12.82;2.95;;;;;;;;;;5061379;28;20127;-75
2024/01/20 04:10:14;;;;;;;16.48;3.40;;;;;;;;;;5057207;28;20036;-75
2024/01/20 04:12:52;;;;;;;13.35;3.17;;;;;;;;;;5066030;28;20035;-75
2024/01/20 04:15:21;;;;;;;16.38;3.97;;;;;;;;;;5064061;28;20039;-75
2024/01/20 04:17:51;;;;;;;15.13;3.38;;;;;;;;;;5067620;28;20036;-75
2024/01/20 04:20:28;;;;;;;15.88;3.63;;;;;;;;;;5059933;28;20042;-75
2024/01/20 04:22:56;;;;;;;13.55;3.20;;;;;;;;;;5070155;28;20805;-73
2024/01/20 04:25:25;;;;;;;14.18;3.65;;;;;;;;;;5053524;28;20032;-73
2024/01/20 04:27:54;;;;;;;15.45;3.83;;;;;;;;;;5064933;28;20519;-73
2024/01/20 04:30:22;;;;;;;18.10;3.83;;;;;;;;;;5048787;28;20104;-73
2024/01/20 04:32:51;;;;;;;16.42;3.95;;;;;;;;;;5056084;28;20105;-73
2024/01/20 04:35:20;;;;;;;16.23;4.60;;;;;;;;;;5065039;28;20062;-74
2024/01/20 04:37:50;;;;;;;19.38;4.30;;;;;;;;;;5065642;28;20590;-74
2024/01/20 04:40:19;;;;;;;15.68;4.13;;;;;;;;;;5064879;28;20033;-75
2024/01/20 04:42:48;;;;;;;13.77;3.85;;;;;;;;;;5053881;28;20396;-74
2024/01/20 04:45:17;;;;;;;15.13;4.00;;;;;;;;;;5049323;28;20131;-74
2024/01/20 04:47:47;;;;;;;15.45;3.80;;;;;;;;;;5065070;28;20669;-74
2024/01/20 04:50:15;;;;;;;17.90;4.05;;;;;;;;;;5064833;28;20024;-75
2024/01/20 04:52:44;;;;;;;14.63;3.97;;;;;;;;;;5066103;28;20051;-74
2024/01/20 04:55:20;;;;;;;16.17;3.83;;;;;;;;;;5064267;28;20034;-74
2024/01/20 04:57:49;;;;;;;16.75;4.13;;;;;;;;;;5051868;28;20031;-75
2024/01/20 05:00:17;;;;;;;15.70;3.70;;;;;;;;;;5061474;28;20436;-74
2024/01/20 05:02:44;;;;;;;16.38;4.15;;;;;;;;;;5047604;28;20143;-74
2024/01/20 05:05:12;;;;;;;15.75;3.83;;;;;;;;;;5065741;28;20579;-74
2024/01/20 05:07:40;;;;;;;17.90;3.88;;;;;;;;;;5066764;28;20027;-75
2024/01/20 05:10:08;;;;;;;15.95;4.03;;;;;;;;;;5052158;28;20060;-74
2024/01/20 05:12:38;;;;;;;15.40;3.20;;;;;;;;;;5050657;28;20451;-74
2024/01/20 05:15:11;;;;;;;17.02;4.28;;;;;;;;;;5043339;28;20032;-74
2024/01/20 05:17:39;;;;;;;14.23;3.72;;;;;;;;;;5042873;28;20076;-74
2024/01/20 05:20:07;;;;;;;16.80;3.92;;;;;;;;;;5043033;28;20064;-74
2024/01/20 05:22:36;;;;;;;16.55;3.83;;;;;;;;;;5044108;28;20072;-74
2024/01/20 05:25:06;;;;;;;12.88;3.50;;;;;;;;;;5042961;28;20036;-74
2024/01/20 05:27:35;;;;;;;15.73;3.80;;;;;;;;;;5042872;28;20036;-74
2024/01/20 05:30:02;;;;;;;13.68;3.90;;;;;;;;;;5044422;28;20025;-74
2024/01/20 05:32:30;;;;;;;14.10;3.10;;;;;;;;;;5043883;28;20043;-75
2024/01/20 05:34:58;;;;;;;14.75;3.42;;;;;;;;;;5045687;28;20029;-75
2024/01/20 05:37:27;;;;;;;13.43;3.53;;;;;;;;;;5045031;28;20067;-73
2024/01/20 05:39:55;;;;;;;13.50;3.58;;;;;;;;;;5045500;28;20041;-75
2024/01/20 05:42:24;;;;;;;12.13;3.53;;;;;;;;;;5050154;28;20024;-74
2024/01/20 05:44:52;;;;;;;14.60;3.22;;;;;;;;;;5055252;28;20111;-73
2024/01/20 05:47:43;;;;;;;13.27;3.10;;;;;;;;;;5046462;28;20032;-72
2024/01/20 05:50:10;;;;;;;14.15;3.60;;;;;;;;;;5048865;28;20460;-73
2024/01/20 05:52:39;;;;;;;13.25;3.25;;;;;;;;;;5050898;28;20052;-73
2024/01/20 05:55:07;;;;;;;12.82;3.17;;;;;;;;;;5049465;28;20616;-72
2024/01/20 05:57:37;;;;;;;11.35;2.90;;;;;;;;;;5049741;28;20098;-73
2024/01/20 06:00:16;;;;;;;10.70;2.97;;;;;;;;;;5048615;28;20032;-73
2024/01/20 06:02:45;;;;;;;13.48;3.13;;;;;;;;;;5047231;28;20025;-74
2024/01/20 06:05:13;;;;;;;15.70;3.70;;;;;;;;;;5049319;28;20032;-73
2024/01/20 06:07:41;;;;;;;15.82;3.47;;;;;;;;;;5051434;28;20169;-73
2024/01/20 06:10:10;;;;;;;18.95;4.00;;;;;;;;;;5046276;28;20554;-74
2024/01/20 06:12:39;;;;;;;16.95;4.00;;;;;;;;;;5048032;28;20020;-74
2024/01/20 06:15:08;;;;;;;15.52;4.13;;;;;;;;;;5049911;28;20028;-74
2024/01/20 06:17:36;;;;;;;15.50;4.60;;;;;;;;;;5046923;28;20601;-75
2024/01/20 06:20:05;;;;;;;20.48;4.85;;;;;;;;;;5047119;28;20037;-75
2024/01/20 06:22:34;;;;;;;24.38;5.47;;;;;;;;;;5043333;28;20055;-75
2024/01/20 06:25:00;;;;;;;24.50;5.78;;;;;;;;;;5046466;28;20048;-74
2024/01/20 06:27:30;;;;;;;25.40;6.07;;;;;;;;;;5049585;28;20635;-75
2024/01/20 06:29:58;;;;;;;20.38;5.75;;;;;;;;;;5048770;28;20032;-74
2024/01/20 06:32:26;;;;;;;23.05;6.32;;;;;;;;;;5049871;28;20029;-74
2024/01/20 06:34:53;;;;;;;27.65;6.47;;;;;;;;;;5048015;28;20087;-74
2024/01/20 06:37:20;;;;;;;26.05;6.10;;;;;;;;;;5046826;28;20024;-74
2024/01/20 06:39:49;;;;;;;25.70;6.47;;;;;;;;;;5046758;28;20036;-74
2024/01/20 06:42:18;;;;;;;23.98;5.80;;;;;;;;;;5046455;28;20406;-74
2024/01/20 06:44:48;;;;;;;26.70;6.40;;;;;;;;;;5033413;28;20951;-75
2024/01/20 06:47:17;;;;;;;23.02;6.32;;;;;;;;;;5046287;28;20029;-74
2024/01/20 06:49:49;;;;;;;23.00;5.93;;;;;;;;;;5048597;28;20017;-76
2024/01/20 06:52:20;;;;;;;25.63;5.90;;;;;;;;;;5040930;28;20044;-74
2024/01/20 06:54:49;;;;;;;23.70;6.13;;;;;;;;;;5049148;28;20017;-74
2024/01/20 06:57:17;;;;;;;25.80;6.43;;;;;;;;;;5042493;28;20056;-73
2024/01/20 06:59:45;;;;;;;27.70;6.63;;;;;;;;;;5043302;28;20024;-73
2024/01/20 07:02:12;;;;;;;27.48;7.32;;;;;;;;;;5046097;28;20036;-74
2024/01/20 07:04:42;;;;;;;26.70;7.57;;;;;;;;;;5048392;28;20039;-74
2024/01/20 07:07:19;;;;;;;23.83;6.95;;;;;;;;;;5045179;28;20093;-74
2024/01/20 07:09:48;;;;;;;28.15;6.90;;;;;;;;;;5044286;28;20074;-74
2024/01/20 07:12:16;;;;;;;29.65;7.30;;;;;;;;;;5044730;28;20451;-74
2024/01/20 07:14:45;;;;;;;28.23;7.32;;;;;;;;;;5046030;28;20025;-74
2024/01/20 07:17:14;;;;;;;25.25;7.22;;;;;;;;;;5044778;28;20047;-73
2024/01/20 07:19:43;;;;;;;29.63;6.75;;;;;;;;;;5050026;28;20032;-73
2024/01/20 07:22:09;;;;;;;24.38;7.30;;;;;;;;;;5043051;28;20041;-73
2024/01/20 07:24:38;;;;;;;24.75;7.03;;;;;;;;;;5041526;28;20039;-74
2024/01/20 07:27:06;;;;;;;26.92;7.18;;;;;;;;;;5040258;28;20118;-74
2024/01/20 07:29:38;;;;;;;26.90;6.55;;;;;;;;;;5043827;28;20031;-74
2024/01/20 07:32:06;;;;;;;23.15;6.43;;;;;;;;;;5044163;28;20143;-74
2024/01/20 07:34:33;;;;;;;29.08;7.25;;;;;;;;;;5046138;28;20838;-74
2024/01/20 07:37:01;;;;;;;27.58;6.43;;;;;;;;;;5042534;28;20040;-74
2024/01/20 07:39:30;;;;;;;23.63;6.78;;;;;;;;;;5043537;28;20052;-74
2024/01/20 07:41:59;;;;;;;20.70;6.18;;;;;;;;;;5045363;28;20025;-74
2024/01/20 07:44:49;;;;;;;22.70;6.50;;;;;;;;;;5041744;28;20043;-74
2024/01/20 07:47:18;;;;;;;23.27;7.30;;;;;;;;;;5038550;28;20047;-73
2024/01/20 07:49:46;;;;;;;24.50;6.32;;;;;;;;;;5046551;28;20024;-73
2024/01/20 07:52:15;;;;;;;23.65;6.80;;;;;;;;;;5043216;28;20052;-73
2024/01/20 07:54:43;;;;;;;26.20;7.03;;;;;;;;;;5046801;28;20020;-73
2024/01/20 07:57:11;;;;;;;23.70;7.13;;;;;;;;;;5046753;28;20029;-74
2024/01/20 07:59:39;;;;;;;22.02;6.97;;;;;;;;;;5046974;28;20530;-74
2024/01/20 08:02:08;;;;;;;28.20;7.65;;;;;;;;;;5046436;28;20038;-74
2024/01/20 08:04:35;;;;;;;32.03;7.55;;;;;;;;;;5047287;28;20028;-74
2024/01/20 08:07:04;;;;;;;25.20;6.63;;;;;;;;;;5048213;28;20040;-74
2024/01/20 08:09:36;;;;;;;23.60;7.38;;;;;;;;;;5043671;28;21416;-74
2024/01/20 08:12:04;;;;;;;24.70;6.68;;;;;;;;;;5046584;28;20032;-73
2024/01/20 08:14:31;;;;;;;24.17;7.15;;;;;;;;;;5022827;28;20218;-74
2024/01/20 08:16:58;;;;;;;23.38;6.78;;;;;;;;;;5033373;28;20044;-74
2024/01/20 08:19:27;;;;;;;27.02;6.70;;;;;;;;;;5028594;28;20036;-74
2024/01/20 08:21:55;;;;;;;25.70;7.85;;;;;;;;;;5034231;28;20048;-74
2024/01/20 08:24:24;;;;;;;26.15;8.10;;;;;;;;;;5032315;28;20414;-75
2024/01/20 08:26:51;;;;;;;29.60;8.43;;;;;;;;;;5030090;28;20033;-75
2024/01/20 08:29:21;;;;;;;24.98;7.32;;;;;;;;;;5030884;28;20054;-75
2024/01/20 08:31:49;;;;;;;27.17;7.60;;;;;;;;;;5033529;28;20090;-76
2024/01/20 08:34:18;;;;;;;27.58;7.53;;;;;;;;;;5013089;28;20094;-75
2024/01/20 08:36:45;;;;;;;26.48;7.97;;;;;;;;;;5031379;28;20592;-75
2024/01/20 08:39:13;;;;;;;26.00;6.68;;;;;;;;;;5031121;28;20869;-75
2024/01/20 08:41:42;;;;;;;24.42;6.90;;;;;;;;;;5030194;28;20040;-77
2024/01/20 08:44:09;;;;;;;24.60;7.32;;;;;;;;;;5030952;28;20037;-75
2024/01/20 08:46:38;;;;;;;26.17;7.05;;;;;;;;;;5033000;28;20025;-75
2024/01/20 08:49:06;;;;;;;28.70;9.10;;;;;;;;;;5036811;28;20021;-75
2024/01/20 08:51:36;;;;;;;27.20;9.43;;;;;;;;;;5030387;28;20503;-74
2024/01/20 08:54:05;;;;;;;24.10;8.60;;;;;;;;;;5031343;28;20090;-75
2024/01/20 08:56:34;;;;;;;23.38;7.72;;;;;;;;;;5025743;28;20211;-75
2024/01/20 08:59:01;;;;;;;27.70;7.15;;;;;;;;;;5027577;28;20033;-75
2024/01/20 09:01:27;;;;;;;24.67;7.65;;;;;;;;;;5027408;28;20029;-75
2024/01/20 09:03:55;;;;;;;25.15;7.95;;;;;;;;;;5030170;28;20036;-75
2024/01/20 09:06:24;;;;;;;25.40;8.02;;;;;;;;;;5027177;28;20079;-75
2024/01/20 09:08:53;;;;;;;26.77;8.00;;;;;;;;;;5031778;28;20056;-75
2024/01/20 09:11:21;;;;;;;23.17;8.23;;;;;;;;;;5031222;28;20094;-75
2024/01/20 09:13:50;;;;;;;25.83;8.23;;;;;;;;;;5029669;28;20029;-75
2024/01/20 09:16:18;;;;;;;22.75;7.40;;;;;;;;;;5038934;28;20135;-75
2024/01/20 09:18:46;;;;;;;27.20;7.82;;;;;;;;;;5055159;28;20482;-75
2024/01/20 09:21:12;;;;;;;25.33;7.75;;;;;;;;;;5050831;28;20017;-75
2024/01/20 09:23:40;;;;;;;22.00;6.97;;;;;;;;;;5059032;28;20032;-75
2024/01/20 09:26:08;;;;;;;25.73;7.95;;;;;;;;;;5056690;28;20029;-75
2024/01/20 09:28:37;;;;;;;21.95;7.25;;;;;;;;;;5051774;28;20040;-76
2024/01/20 09:31:04;;;;;;;23.27;6.65;;;;;;;;;;5052273;28;20028;-75
2024/01/20 09:33:32;;;;;;;23.77;6.43;;;;;;;;;;5048007;28;20024;-75
2024/01/20 09:36:02;;;;;;;22.90;7.20;;;;;;;;;;5052707;28;20043;-75
2024/01/20 09:38:30;;;;;;;24.67;6.95;;;;;;;;;;5049496;28;20139;-74
2024/01/20 09:41:00;;;;;;;21.95;6.05;;;;;;;;;;5053099;28;20032;-75
2024/01/20 09:43:48;;;;;;;22.25;6.60;;;;;;;;;;5050752;28;20049;-75
2024/01/20 09:46:15;;;;;;;;;;;;;;;;;;5052771;28;20036;-75
2024/01/20 09:48:44;;;;;;;18.73;5.78;;;;;;;;;;5049840;28;19916;-75
2024/01/20 09:51:14;;;;;;;18.23;5.75;;;;;;;;;;5048699;28;20575;-76
2024/01/20 09:54:00;;;;;;;20.27;6.30;;;;;;;;;;5052205;28;20037;-75
2024/01/20 09:56:30;;;;;;;22.45;6.30;;;;;;;;;;5052571;28;20029;-75
2024/01/20 09:59:02;;;;;;;19.48;5.45;;;;;;;;;;5036623;28;20648;-75
2024/01/20 10:01:32;;;;;;;22.25;6.32;;;;;;;;;;5048595;28;20033;-75
2024/01/20 10:04:11;;;;;;;18.77;6.30;;;;;;;;;;5054523;28;20052;-75
2024/01/20 10:06:39;;;;;;;21.20;5.38;;;;;;;;;;5052966;28;20024;-74
2024/01/20 10:09:07;;;;;;;17.35;5.35;;;;;;;;;;5048386;28;20108;-75
2024/01/20 10:11:36;;;;;;;21.25;6.00;;;;;;;;;;5049016;28;20503;-75
2024/01/20 10:14:03;;;;;;;20.83;5.93;;;;;;;;;;5049939;28;20116;-75
2024/01/20 10:16:53;;;;;;;18.65;5.20;;;;;;;;;;5058848;28;20127;-75
2024/01/20 10:19:20;;;;;;;17.98;5.28;;;;;;;;;;5069351;28;20024;-75
2024/01/20 10:21:50;;;;;;;17.48;5.25;;;;;;;;;;5056716;28;20038;-74
2024/01/20 10:24:23;;;;;;;18.13;5.18;;;;;;;;;;5065239;28;20044;-74
2024/01/20 10:26:52;;;;;;;21.10;5.65;;;;;;;;;;5059342;28;20552;-75
2024/01/20 10:29:20;;;;;;;21.38;5.47;;;;;;;;;;5062980;28;20024;-75
2024/01/20 10:31:48;;;;;;;18.55;5.38;;;;;;;;;;5054672;28;20058;-75
2024/01/20 10:34:29;;;;;;;18.88;6.40;;;;;;;;;;5066245;28;20106;-75
2024/01/20 10:37:17;;;;;;;17.50;5.63;;;;;;;;;;5064921;28;20481;-74
2024/01/20 10:39:47;;;;;;;19.77;5.50;;;;;;;;;;5062919;28;20037;-74
2024/01/20 10:42:14;;;;;;;16.83;5.45;;;;;;;;;;5051560;28;20031;-74
2024/01/20 10:45:04;;;;;;;16.15;5.60;;;;;;;;;;5038725;28;20056;-74
2024/01/20 10:47:39;;;;;;;18.35;5.50;;;;;;;;;;5054878;28;20063;-74
2024/01/20 10:50:15;;;;;;;18.58;5.68;;;;;;;;;;5058143;28;20135;-74
2024/01/20 10:53:05;;;;;;;18.63;5.15;;;;;;;;;;5054260;28;20027;-75
2024/01/20 10:55:35;;;;;;;21.88;5.90;;;;;;;;;;5067329;28;20036;-73
2024/01/20 10:58:16;;;;;;;22.63;6.88;;;;;;;;;;5031097;28;20034;-73
2024/01/20 11:00:45;;;;;;;22.55;6.47;;;;;;;;;;5067810;28;20044;-73
2024/01/20 11:03:14;;;;;;;21.13;6.00;;;;;;;;;;5053450;28;20039;-73
2024/01/20 11:05:51;;;;;;;24.88;6.68;;;;;;;;;;5070724;28;20070;-74
2024/01/20 11:08:28;;;;;;;23.23;6.60;;;;;;;;;;5049293;28;20029;-74
2024/01/20 11:10:57;;;;;;;20.13;6.32;;;;;;;;;;5060833;28;20074;-74
2024/01/20 11:13:28;;;;;;;20.83;6.25;;;;;;;;;;5038975;28;20487;-75
2024/01/20 11:15:57;;;;;;;25.27;7.72;;;;;;;;;;5066339;28;20024;-75
2024/01/20 11:18:28;;;;;;;22.00;6.60;;;;;;;;;;5045937;28;20047;-75
2024/01/20 11:21:06;;;;;;;28.15;7.63;;;;;;;;;;5049265;28;20032;-75
2024/01/20 11:23:34;;;;;;;23.67;8.13;;;;;;;;;;5031575;28;20934;-74
2024/01/20 11:26:20;;;;;;;28.75;8.27;;;;;;;;;;5050056;28;20097;-74
2024/01/20 11:28:49;;;;;;;22.63;7.17;;;;;;;;;;5066870;28;20480;-74
2024/01/20 11:31:20;;;;;;;28.10;9.95;;;;;;;;;;5053007;28;20056;-75
2024/01/20 11:33:48;;;;;;;27.85;11.82;;;;;;;;;;5036230;28;20058;-74
2024/01/20 11:36:16;;;;;;;28.33;8.88;;;;;;;;;;5048876;28;20130;-73
2024/01/20 11:38:47;;;;;;;28.55;7.65;;;;;;;;;;5054914;28;20115;-74
2024/01/20 11:41:18;;;;;;;24.60;6.90;;;;;;;;;;5064972;28;20081;-74
2024/01/20 11:43:47;;;;;;;26.95;6.93;;;;;;;;;;5053155;28;20067;-73
2024/01/20 11:46:16;;;;;;;18.00;6.28;;;;;;;;;;5036353;28;20032;-74
2024/01/20 11:48:51;;;;;;;21.73;7.40;;;;;;;;;;5069694;28;20540;-76
2024/01/20 11:51:21;;;;;;;20.52;5.57;;;;;;;;;;5035214;28;20305;-74
2024/01/20 11:53:50;;;;;;;20.50;5.55;;;;;;;;;;5055501;28;20094;-74
2024/01/20 11:56:18;;;;;;;20.25;5.78;;;;;;;;;;5065877;28;20167;-75
2024/01/20 11:58:47;;;;;;;24.05;7.15;;;;;;;;;;5064259;28;20139;-75
2024/01/20 12:01:19;;;;;;;16.58;5.65;;;;;;;;;;5052968;28;20034;-75
2024/01/20 12:03:48;;;;;;;22.50;6.10;;;;;;;;;;5055869;28;20123;-75
2024/01/20 12:06:16;;;;;;;27.80;6.53;;;;;;;;;;5065320;28;20024;-75
2024/01/20 12:08:45;;;;;;;16.63;5.35;;;;;;;;;;5068838;28;20062;-75
2024/01/20 12:11:26;;;;;;;23.67;6.22;;;;;;;;;;5068930;28;20077;-75
2024/01/20 12:13:57;;;;;;;18.35;5.90;;;;;;;;;;5069799;28;20111;-75
2024/01/20 12:16:25;;;;;;;21.63;6.20;;;;;;;;;;5029315;28;20122;-74
2024/01/20 12:18:54;;;;;;;18.10;5.78;;;;;;;;;;5031480;28;20105;-75
2024/01/20 12:21:23;;;;;;;23.35;5.30;;;;;;;;;;5031425;28;20821;-75
2024/01/20 12:23:52;;;;;;;21.20;5.88;;;;;;;;;;5029178;28;20060;-74
2024/01/20 12:26:22;;;;;;;17.25;5.15;;;;;;;;;;5027287;28;20040;-74
2024/01/20 12:29:00;;;;;;;21.85;6.05;;;;;;;;;;5025908;28;20036;-74
2024/01/20 12:31:27;;;;;;;21.00;5.95;;;;;;;;;;5027711;28;20033;-75
2024/01/20 12:33:56;;;;;;;22.25;5.85;;;;;;;;;;5027730;28;20032;-75
2024/01/20 12:36:25;;;;;;;16.02;5.60;;;;;;;;;;5028600;28;20047;-74
2024/01/20 12:38:54;;;;;;;23.23;5.90;;;;;;;;;;5032274;28;20611;-75
2024/01/20 12:41:23;;;;;;;17.85;5.53;;;;;;;;;;5028506;28;20502;-76
2024/01/20 12:43:50;;;;;;;20.20;5.50;;;;;;;;;;5030992;28;20072;-75
2024/01/20 12:46:18;;;;;;;19.88;5.85;;;;;;;;;;5032499;28;20083;-76
2024/01/20 12:48:48;;;;;;;19.38;5.63;;;;;;;;;;5045157;28;20067;-76
2024/01/20 12:51:18;;;;;;;18.27;5.50;;;;;;;;;;5032455;28;20162;-75
2024/01/20 12:53:47;;;;;;;20.00;5.80;;;;;;;;;;5027405;28;20112;-75
2024/01/20 12:56:16;;;;;;;23.08;5.88;;;;;;;;;;5023154;28;20036;-76
2024/01/20 12:58:44;;;;;;;17.55;5.10;;;;;;;;;;5029192;28;20052;-74
2024/01/20 13:01:13;;;;;;;21.27;5.30;;;;;;;;;;5027368;28;20350;-75
2024/01/20 13:03:41;;;;;;;20.38;5.65;;;;;;;;;;5031410;28;20536;-77
2024/01/20 13:06:10;;;;;;;24.70;5.85;;;;;;;;;;5025295;28;20477;-75
2024/01/20 13:08:38;;;;;;;19.75;5.65;;;;;;;;;;5026212;28;20160;-75
2024/01/20 13:11:06;;;;;;;17.73;5.55;;;;;;;;;;5035122;28;20025;-76
2024/01/20 13:13:35;;;;;;;22.45;6.28;;;;;;;;;;5028717;28;20470;-75
2024/01/20 13:16:03;;;;;;;18.92;5.93;;;;;;;;;;5029582;28;20573;-74
2024/01/20 13:18:30;;;;;;;18.33;5.55;;;;;;;;;;5048483;28;20050;-75
2024/01/20 13:20:59;;;;;;;17.38;5.35;;;;;;;;;;5053869;28;20023;-74
2024/01/20 13:23:26;;;;;;;21.17;6.10;;;;;;;;;;5050953;28;20415;-76
2024/01/20 13:25:55;;;;;;;21.27;6.07;;;;;;;;;;5043808;28;20126;-75
2024/01/20 13:28:26;;;;;;;19.90;6.15;;;;;;;;;;5061519;28;20024;-75
2024/01/20 13:30:56;;;;;;;18.00;6.00;;;;;;;;;;5046126;28;20027;-75
2024/01/20 13:33:32;;;;;;;18.60;5.38;;;;;;;;;;5065005;28;20194;-75
2024/01/20 13:36:00;;;;;;;15.48;4.68;;;;;;;;;;5062829;28;20028;-75
2024/01/20 13:38:28;;;;;;;22.80;5.60;;;;;;;;;;5029291;28;20098;-75
2024/01/20 13:40:57;;;;;;;17.25;5.50;;;;;;;;;;5048387;28;20015;-75
2024/01/20 13:43:26;;;;;;;19.38;5.72;;;;;;;;;;5062338;28;20036;-77
2024/01/20 13:45:54;;;;;;;20.25;5.65;;;;;;;;;;5066137;28;20095;-75
2024/01/20 13:48:22;;;;;;;15.18;4.60;;;;;;;;;;5061886;28;20028;-75
2024/01/20 13:50:52;;;;;;;15.88;5.05;;;;;;;;;;5064451;28;20651;-76
2024/01/20 13:53:21;;;;;;;18.23;4.50;;;;;;;;;;5058695;28;20025;-76
2024/01/20 13:55:51;;;;;;;17.80;5.50;;;;;;;;;;5062475;28;20040;-75
2024/01/20 13:58:42;;;;;;;17.75;5.57;;;;;;;;;;5054911;28;20070;-75
2024/01/20 14:01:09;;;;;;;16.38;5.15;;;;;;;;;;5051098;28;20028;-76
2024/01/20 14:03:37;;;;;;;15.93;4.65;;;;;;;;;;5048688;28;20036;-75
2024/01/20 14:06:05;;;;;;;17.25;5.13;;;;;;;;;;5066655;28;20318;-75
2024/01/20 14:08:34;;;;;;;17.60;4.93;;;;;;;;;;5032364;28;20616;-77
2024/01/20 14:11:03;;;;;;;20.98;5.95;;;;;;;;;;5066417;28;20809;-75
2024/01/20 14:13:40;;;;;;;18.75;5.93;;;;;;;;;;5065108;28;20020;-76
2024/01/20 14:16:07;;;;;;;17.33;6.38;;;;;;;;;;5053111;28;20103;-77
2024/01/20 14:18:35;;;;;;;17.08;5.13;;;;;;;;;;5068533;28;20036;-76
2024/01/20 14:21:04;;;;;;;16.85;5.75;;;;;;;;;;5068878;28;20096;-75
2024/01/20 14:23:32;;;;;;;22.83;5.95;;;;;;;;;;5065207;28;20038;-74
2024/01/20 14:26:00;;;;;;;17.45;5.68;;;;;;;;;;5067424;28;20032;-73
2024/01/20 14:28:38;;;;;;;18.88;5.55;;;;;;;;;;5063922;28;20032;-76
2024/01/20 14:31:07;;;;;;;19.40;5.20;;;;;;;;;;5063831;28;20028;-75
2024/01/20 14:33:39;;;;;;;17.52;5.47;;;;;;;;;;5065703;28;20036;-75
2024/01/20 14:36:08;;;;;;;15.43;5.28;;;;;;;;;;5066722;28;20036;-76
2024/01/20 14:38:36;;;;;;;19.10;5.28;;;;;;;;;;5051931;28;20028;-78
2024/01/20 14:41:26;;;;;;;18.38;5.22;;;;;;;;;;5053876;28;20510;-74
2024/01/20 14:43:56;;;;;;;18.65;5.72;;;;;;;;;;5065052;28;20048;-74
2024/01/20 14:46:25;;;;;;;22.13;6.05;;;;;;;;;;5050822;28;20026;-74